sensor_id;sensor_type;location;lat;lon;timestamp;P1;durP1;ratioP1;P2;durP2;ratioP2
64684;SDS011;51109;47.414;18.954;2023-04-03T00:01:38;5.07;;;3.30;;
64684;SDS011;51109;47.414;18.954;2023-04-03T00:04:04;6.68;;;3.70;;
64684;SDS011;51109;47.414;18.954;2023-04-03T00:06:31;4.32;;;2.95;;
64684;SDS011;51109;47.414;18.954;2023-04-03T00:08:57;6.53;;;2.95;;
64684;SDS011;51109;47.414;18.954;2023-04-03T00:11:23;4.35;;;2.90;;
64684;SDS011;51109;47.414;18.954;2023-04-03T00:13:50;7.28;;;3.60;;
64684;SDS011;51109;47.414;18.954;2023-04-03T00:16:16;3.72;;;2.50;;
64684;SDS011;51109;47.414;18.954;2023-04-03T00:18:43;6.07;;;3.75;;
64684;SDS011;51109;47.414;18.954;2023-04-03T00:21:10;6.38;;;3.60;;
64684;SDS011;51109;47.414;18.954;2023-04-03T00:23:39;4.65;;;2.95;;
64684;SDS011;51109;47.414;18.954;2023-04-03T00:28:38;6.15;;;3.10;;
64684;SDS011;51109;47.414;18.954;2023-04-03T00:31:04;5.78;;;3.13;;
64684;SDS011;51109;47.414;18.954;2023-04-03T00:33:30;5.90;;;3.42;;
64684;SDS011;51109;47.414;18.954;2023-04-03T00:35:56;6.95;;;2.78;;
64684;SDS011;51109;47.414;18.954;2023-04-03T00:38:21;5.82;;;3.17;;
64684;SDS011;51109;47.414;18.954;2023-04-03T00:40:48;5.95;;;2.90;;
64684;SDS011;51109;47.414;18.954;2023-04-03T00:43:16;3.42;;;2.45;;
64684;SDS011;51109;47.414;18.954;2023-04-03T00:45:46;3.15;;;2.13;;
64684;SDS011;51109;47.414;18.954;2023-04-03T00:48:20;4.22;;;2.80;;
64684;SDS011;51109;47.414;18.954;2023-04-03T00:51:07;3.67;;;2.63;;
64684;SDS011;51109;47.414;18.954;2023-04-03T00:53:46;5.10;;;2.22;;
64684;SDS011;51109;47.414;18.954;2023-04-03T00:56:21;3.95;;;2.70;;
64684;SDS011;51109;47.414;18.954;2023-04-03T00:58:58;5.32;;;2.45;;
64684;SDS011;51109;47.414;18.954;2023-04-03T01:01:29;3.10;;;2.30;;
64684;SDS011;51109;47.414;18.954;2023-04-03T01:03:56;4.40;;;2.38;;
64684;SDS011;51109;47.414;18.954;2023-04-03T01:06:25;3.00;;;1.70;;
64684;SDS011;51109;47.414;18.954;2023-04-03T01:08:53;2.78;;;2.15;;
64684;SDS011;51109;47.414;18.954;2023-04-03T01:11:20;2.25;;;1.55;;
64684;SDS011;51109;47.414;18.954;2023-04-03T01:13:47;2.17;;;1.67;;
64684;SDS011;51109;47.414;18.954;2023-04-03T01:16:14;2.50;;;1.85;;
64684;SDS011;51109;47.414;18.954;2023-04-03T01:18:40;3.50;;;2.45;;
64684;SDS011;51109;47.414;18.954;2023-04-03T01:26:31;3.55;;;2.40;;
64684;SDS011;51109;47.414;18.954;2023-04-03T01:28:58;4.45;;;1.98;;
64684;SDS011;51109;47.414;18.954;2023-04-03T01:31:31;3.72;;;2.25;;
64684;SDS011;51109;47.414;18.954;2023-04-03T01:33:59;2.75;;;2.17;;
64684;SDS011;51109;47.414;18.954;2023-04-03T01:36:27;5.03;;;2.65;;
64684;SDS011;51109;47.414;18.954;2023-04-03T01:38:56;2.63;;;1.73;;
64684;SDS011;51109;47.414;18.954;2023-04-03T01:41:24;3.25;;;2.28;;
64684;SDS011;51109;47.414;18.954;2023-04-03T01:43:50;2.03;;;1.80;;
64684;SDS011;51109;47.414;18.954;2023-04-03T01:46:17;4.20;;;2.50;;
64684;SDS011;51109;47.414;18.954;2023-04-03T01:48:44;2.25;;;1.88;;
64684;SDS011;51109;47.414;18.954;2023-04-03T01:51:10;3.38;;;2.03;;
64684;SDS011;51109;47.414;18.954;2023-04-03T01:53:36;2.90;;;2.22;;
64684;SDS011;51109;47.414;18.954;2023-04-03T01:56:01;4.75;;;2.10;;
64684;SDS011;51109;47.414;18.954;2023-04-03T01:58:28;4.57;;;1.67;;
64684;SDS011;51109;47.414;18.954;2023-04-03T02:00:54;1.63;;;1.40;;
64684;SDS011;51109;47.414;18.954;2023-04-03T02:03:20;1.50;;;1.40;;
64684;SDS011;51109;47.414;18.954;2023-04-03T02:05:47;2.80;;;1.75;;
64684;SDS011;51109;47.414;18.954;2023-04-03T02:08:13;2.83;;;2.03;;
64684;SDS011;51109;47.414;18.954;2023-04-03T02:10:39;3.38;;;1.90;;
64684;SDS011;51109;47.414;18.954;2023-04-03T02:13:05;2.65;;;1.58;;
64684;SDS011;51109;47.414;18.954;2023-04-03T02:15:31;1.88;;;1.48;;
64684;SDS011;51109;47.414;18.954;2023-04-03T02:17:57;5.32;;;2.13;;
64684;SDS011;51109;47.414;18.954;2023-04-03T02:20:23;4.28;;;2.42;;
64684;SDS011;51109;47.414;18.954;2023-04-03T02:22:49;3.78;;;1.77;;
64684;SDS011;51109;47.414;18.954;2023-04-03T02:25:15;2.20;;;2.00;;
64684;SDS011;51109;47.414;18.954;2023-04-03T02:27:40;2.35;;;2.00;;
64684;SDS011;51109;47.414;18.954;2023-04-03T02:30:06;2.05;;;1.65;;
64684;SDS011;51109;47.414;18.954;2023-04-03T02:32:34;1.98;;;1.58;;
64684;SDS011;51109;47.414;18.954;2023-04-03T02:35:00;2.00;;;1.77;;
64684;SDS011;51109;47.414;18.954;2023-04-03T02:37:26;1.70;;;1.17;;
64684;SDS011;51109;47.414;18.954;2023-04-03T02:39:52;2.55;;;1.92;;
64684;SDS011;51109;47.414;18.954;2023-04-03T02:42:18;5.05;;;2.25;;
64684;SDS011;51109;47.414;18.954;2023-04-03T02:44:43;1.75;;;1.63;;
64684;SDS011;51109;47.414;18.954;2023-04-03T02:47:10;1.30;;;1.20;;
64684;SDS011;51109;47.414;18.954;2023-04-03T02:49:35;3.10;;;2.05;;
64684;SDS011;51109;47.414;18.954;2023-04-03T02:52:01;2.35;;;1.58;;
64684;SDS011;51109;47.414;18.954;2023-04-03T02:54:27;2.53;;;1.92;;
64684;SDS011;51109;47.414;18.954;2023-04-03T02:56:55;2.75;;;1.80;;
64684;SDS011;51109;47.414;18.954;2023-04-03T02:59:22;2.63;;;2.10;;
64684;SDS011;51109;47.414;18.954;2023-04-03T03:07:08;4.00;;;2.40;;
64684;SDS011;51109;47.414;18.954;2023-04-03T03:09:34;3.13;;;2.30;;
64684;SDS011;51109;47.414;18.954;2023-04-03T03:11:59;7.50;;;3.25;;
64684;SDS011;51109;47.414;18.954;2023-04-03T03:14:25;5.10;;;2.70;;
64684;SDS011;51109;47.414;18.954;2023-04-03T03:16:51;5.47;;;2.88;;
64684;SDS011;51109;47.414;18.954;2023-04-03T03:19:17;3.22;;;2.30;;
64684;SDS011;51109;47.414;18.954;2023-04-03T03:21:43;3.67;;;2.40;;
64684;SDS011;51109;47.414;18.954;2023-04-03T03:24:09;2.53;;;2.30;;
64684;SDS011;51109;47.414;18.954;2023-04-03T03:26:35;1.58;;;1.48;;
64684;SDS011;51109;47.414;18.954;2023-04-03T03:29:01;2.72;;;2.47;;
64684;SDS011;51109;47.414;18.954;2023-04-03T03:31:28;5.00;;;2.20;;
64684;SDS011;51109;47.414;18.954;2023-04-03T03:33:54;2.33;;;1.75;;
64684;SDS011;51109;47.414;18.954;2023-04-03T03:36:20;2.45;;;2.00;;
64684;SDS011;51109;47.414;18.954;2023-04-03T03:38:45;4.47;;;2.13;;
64684;SDS011;51109;47.414;18.954;2023-04-03T03:41:11;3.75;;;2.58;;
64684;SDS011;51109;47.414;18.954;2023-04-03T03:43:38;4.20;;;2.60;;
64684;SDS011;51109;47.414;18.954;2023-04-03T03:46:04;4.85;;;3.30;;
64684;SDS011;51109;47.414;18.954;2023-04-03T03:48:30;2.88;;;2.15;;
64684;SDS011;51109;47.414;18.954;2023-04-03T03:50:58;3.17;;;1.83;;
64684;SDS011;51109;47.414;18.954;2023-04-03T03:53:24;3.10;;;2.38;;
64684;SDS011;51109;47.414;18.954;2023-04-03T03:55:49;2.80;;;1.85;;
64684;SDS011;51109;47.414;18.954;2023-04-03T03:58:15;6.25;;;2.47;;
64684;SDS011;51109;47.414;18.954;2023-04-03T04:00:41;1.88;;;1.63;;
64684;SDS011;51109;47.414;18.954;2023-04-03T04:03:07;3.53;;;2.20;;
64684;SDS011;51109;47.414;18.954;2023-04-03T04:05:33;3.47;;;2.53;;
64684;SDS011;51109;47.414;18.954;2023-04-03T04:07:59;4.93;;;2.67;;
64684;SDS011;51109;47.414;18.954;2023-04-03T04:10:25;2.83;;;2.10;;
64684;SDS011;51109;47.414;18.954;2023-04-03T04:12:51;3.22;;;2.35;;
64684;SDS011;51109;47.414;18.954;2023-04-03T04:15:17;3.80;;;2.45;;
64684;SDS011;51109;47.414;18.954;2023-04-03T04:17:43;3.22;;;2.50;;
64684;SDS011;51109;47.414;18.954;2023-04-03T04:20:09;4.03;;;3.08;;
64684;SDS011;51109;47.414;18.954;2023-04-03T04:22:36;4.40;;;2.63;;
64684;SDS011;51109;47.414;18.954;2023-04-03T04:25:03;3.83;;;2.47;;
64684;SDS011;51109;47.414;18.954;2023-04-03T04:27:29;2.78;;;2.35;;
64684;SDS011;51109;47.414;18.954;2023-04-03T04:29:55;4.78;;;2.75;;
64684;SDS011;51109;47.414;18.954;2023-04-03T04:32:21;3.05;;;2.10;;
64684;SDS011;51109;47.414;18.954;2023-04-03T04:34:46;3.60;;;2.35;;
64684;SDS011;51109;47.414;18.954;2023-04-03T04:37:12;2.75;;;2.47;;
64684;SDS011;51109;47.414;18.954;2023-04-03T04:39:38;3.97;;;1.95;;
64684;SDS011;51109;47.414;18.954;2023-04-03T04:42:04;3.78;;;1.90;;
64684;SDS011;51109;47.414;18.954;2023-04-03T04:44:32;3.20;;;2.47;;
64684;SDS011;51109;47.414;18.954;2023-04-03T04:46:58;5.38;;;2.53;;
64684;SDS011;51109;47.414;18.954;2023-04-03T04:49:24;2.83;;;2.17;;
64684;SDS011;51109;47.414;18.954;2023-04-03T04:51:49;3.63;;;2.28;;
64684;SDS011;51109;47.414;18.954;2023-04-03T04:54:15;3.53;;;2.10;;
64684;SDS011;51109;47.414;18.954;2023-04-03T04:56:41;4.70;;;2.40;;
64684;SDS011;51109;47.414;18.954;2023-04-03T04:59:07;3.97;;;2.67;;
64684;SDS011;51109;47.414;18.954;2023-04-03T05:01:33;2.90;;;2.08;;
64684;SDS011;51109;47.414;18.954;2023-04-03T05:03:59;4.32;;;2.53;;
64684;SDS011;51109;47.414;18.954;2023-04-03T05:06:25;3.83;;;2.35;;
64684;SDS011;51109;47.414;18.954;2023-04-03T05:08:51;5.20;;;2.72;;
64684;SDS011;51109;47.414;18.954;2023-04-03T05:11:17;4.50;;;2.67;;
64684;SDS011;51109;47.414;18.954;2023-04-03T05:13:43;2.00;;;1.80;;
64684;SDS011;51109;47.414;18.954;2023-04-03T05:16:09;4.15;;;2.03;;
64684;SDS011;51109;47.414;18.954;2023-04-03T05:18:34;1.52;;;1.42;;
64684;SDS011;51109;47.414;18.954;2023-04-03T05:21:01;5.95;;;2.40;;
64684;SDS011;51109;47.414;18.954;2023-04-03T05:23:27;6.68;;;2.45;;
64684;SDS011;51109;47.414;18.954;2023-04-03T05:25:52;5.55;;;2.35;;
64684;SDS011;51109;47.414;18.954;2023-04-03T05:28:19;2.58;;;2.08;;
64684;SDS011;51109;47.414;18.954;2023-04-03T05:30:45;3.38;;;2.45;;
64684;SDS011;51109;47.414;18.954;2023-04-03T05:33:10;8.02;;;2.70;;
64684;SDS011;51109;47.414;18.954;2023-04-03T05:35:37;4.47;;;2.20;;
64684;SDS011;51109;47.414;18.954;2023-04-03T05:38:07;3.13;;;2.30;;
64684;SDS011;51109;47.414;18.954;2023-04-03T05:40:33;2.22;;;1.77;;
64684;SDS011;51109;47.414;18.954;2023-04-03T05:42:59;2.22;;;2.03;;
64684;SDS011;51109;47.414;18.954;2023-04-03T05:45:24;4.70;;;2.17;;
64684;SDS011;51109;47.414;18.954;2023-04-03T05:47:50;4.60;;;1.95;;
64684;SDS011;51109;47.414;18.954;2023-04-03T05:50:18;5.07;;;2.45;;
64684;SDS011;51109;47.414;18.954;2023-04-03T05:52:45;3.05;;;2.42;;
64684;SDS011;51109;47.414;18.954;2023-04-03T05:55:13;4.18;;;2.50;;
64684;SDS011;51109;47.414;18.954;2023-04-03T05:57:40;3.85;;;2.17;;
64684;SDS011;51109;47.414;18.954;2023-04-03T06:00:06;4.88;;;2.33;;
64684;SDS011;51109;47.414;18.954;2023-04-03T06:02:35;3.38;;;1.92;;
64684;SDS011;51109;47.414;18.954;2023-04-03T06:05:01;2.65;;;1.90;;
64684;SDS011;51109;47.414;18.954;2023-04-03T06:07:27;4.43;;;2.40;;
64684;SDS011;51109;47.414;18.954;2023-04-03T06:09:54;3.92;;;2.20;;
64684;SDS011;51109;47.414;18.954;2023-04-03T06:12:21;2.60;;;2.13;;
64684;SDS011;51109;47.414;18.954;2023-04-03T06:14:48;9.55;;;2.50;;
64684;SDS011;51109;47.414;18.954;2023-04-03T06:17:14;3.38;;;2.30;;
64684;SDS011;51109;47.414;18.954;2023-04-03T06:19:43;3.60;;;2.05;;
64684;SDS011;51109;47.414;18.954;2023-04-03T06:22:09;2.80;;;2.15;;
64684;SDS011;51109;47.414;18.954;2023-04-03T06:24:36;3.30;;;2.30;;
64684;SDS011;51109;47.414;18.954;2023-04-03T06:27:03;5.57;;;2.75;;
64684;SDS011;51109;47.414;18.954;2023-04-03T06:29:29;3.03;;;2.17;;
64684;SDS011;51109;47.414;18.954;2023-04-03T06:31:56;3.90;;;2.58;;
64684;SDS011;51109;47.414;18.954;2023-04-03T06:34:22;8.27;;;2.50;;
64684;SDS011;51109;47.414;18.954;2023-04-03T06:36:48;2.47;;;1.98;;
64684;SDS011;51109;47.414;18.954;2023-04-03T06:39:16;3.60;;;2.03;;
64684;SDS011;51109;47.414;18.954;2023-04-03T06:41:45;2.65;;;2.00;;
64684;SDS011;51109;47.414;18.954;2023-04-03T06:44:11;3.08;;;2.10;;
64684;SDS011;51109;47.414;18.954;2023-04-03T06:46:40;2.63;;;1.90;;
64684;SDS011;51109;47.414;18.954;2023-04-03T06:49:07;4.50;;;2.53;;
64684;SDS011;51109;47.414;18.954;2023-04-03T06:51:34;5.85;;;2.17;;
64684;SDS011;51109;47.414;18.954;2023-04-03T06:54:02;3.75;;;2.17;;
64684;SDS011;51109;47.414;18.954;2023-04-03T06:56:29;3.05;;;2.00;;
64684;SDS011;51109;47.414;18.954;2023-04-03T06:58:56;8.00;;;2.42;;
64684;SDS011;51109;47.414;18.954;2023-04-03T07:01:23;3.85;;;2.47;;
64684;SDS011;51109;47.414;18.954;2023-04-03T07:03:51;3.17;;;2.08;;
64684;SDS011;51109;47.414;18.954;2023-04-03T07:06:18;1.40;;;1.30;;
64684;SDS011;51109;47.414;18.954;2023-04-03T07:08:46;1.95;;;1.75;;
64684;SDS011;51109;47.414;18.954;2023-04-03T07:11:13;2.22;;;1.65;;
64684;SDS011;51109;47.414;18.954;2023-04-03T07:13:40;3.10;;;1.70;;
64684;SDS011;51109;47.414;18.954;2023-04-03T07:16:06;4.95;;;1.60;;
64684;SDS011;51109;47.414;18.954;2023-04-03T07:18:33;3.35;;;2.08;;
64684;SDS011;51109;47.414;18.954;2023-04-03T07:21:00;2.22;;;1.73;;
64684;SDS011;51109;47.414;18.954;2023-04-03T07:23:26;3.47;;;2.03;;
64684;SDS011;51109;47.414;18.954;2023-04-03T07:25:53;5.22;;;2.47;;
64684;SDS011;51109;47.414;18.954;2023-04-03T07:28:20;2.17;;;1.27;;
64684;SDS011;51109;47.414;18.954;2023-04-03T07:30:49;2.42;;;1.58;;
64684;SDS011;51109;47.414;18.954;2023-04-03T07:33:17;3.53;;;1.83;;
64684;SDS011;51109;47.414;18.954;2023-04-03T07:35:45;2.58;;;1.40;;
64684;SDS011;51109;47.414;18.954;2023-04-03T07:38:11;3.17;;;1.55;;
64684;SDS011;51109;47.414;18.954;2023-04-03T07:40:37;3.30;;;1.50;;
64684;SDS011;51109;47.414;18.954;2023-04-03T07:43:04;1.60;;;1.05;;
64684;SDS011;51109;47.414;18.954;2023-04-03T07:45:31;1.30;;;1.20;;
64684;SDS011;51109;47.414;18.954;2023-04-03T07:48:00;1.88;;;1.35;;
64684;SDS011;51109;47.414;18.954;2023-04-03T07:50:25;3.20;;;1.00;;
64684;SDS011;51109;47.414;18.954;2023-04-03T07:52:52;1.75;;;1.27;;
64684;SDS011;51109;47.414;18.954;2023-04-03T07:55:21;1.38;;;1.25;;
64684;SDS011;51109;47.414;18.954;2023-04-03T07:57:47;2.45;;;1.33;;
64684;SDS011;51109;47.414;18.954;2023-04-03T08:00:13;2.38;;;1.25;;
64684;SDS011;51109;47.414;18.954;2023-04-03T08:02:40;2.67;;;1.20;;
64684;SDS011;51109;47.414;18.954;2023-04-03T08:05:06;1.27;;;1.13;;
64684;SDS011;51109;47.414;18.954;2023-04-03T08:07:32;2.08;;;1.17;;
64684;SDS011;51109;47.414;18.954;2023-04-03T08:09:58;1.42;;;1.30;;
64684;SDS011;51109;47.414;18.954;2023-04-03T08:12:24;1.83;;;1.15;;
64684;SDS011;51109;47.414;18.954;2023-04-03T08:14:50;1.80;;;1.30;;
64684;SDS011;51109;47.414;18.954;2023-04-03T08:17:16;1.35;;;1.15;;
64684;SDS011;51109;47.414;18.954;2023-04-03T08:19:41;1.40;;;1.10;;
64684;SDS011;51109;47.414;18.954;2023-04-03T08:22:08;1.70;;;0.95;;
64684;SDS011;51109;47.414;18.954;2023-04-03T08:24:33;1.45;;;1.25;;
64684;SDS011;51109;47.414;18.954;2023-04-03T08:27:00;0.90;;;0.73;;
64684;SDS011;51109;47.414;18.954;2023-04-03T08:29:26;1.02;;;0.93;;
64684;SDS011;51109;47.414;18.954;2023-04-03T08:31:52;2.10;;;1.25;;
64684;SDS011;51109;47.414;18.954;2023-04-03T08:34:18;1.58;;;1.23;;
64684;SDS011;51109;47.414;18.954;2023-04-03T08:36:44;2.28;;;1.20;;
64684;SDS011;51109;47.414;18.954;2023-04-03T08:39:11;2.58;;;1.45;;
64684;SDS011;51109;47.414;18.954;2023-04-03T08:41:44;1.52;;;1.42;;
64684;SDS011;51109;47.414;18.954;2023-04-03T08:49:53;1.45;;;1.20;;
64684;SDS011;51109;47.414;18.954;2023-04-03T08:52:34;2.65;;;1.45;;
64684;SDS011;51109;47.414;18.954;2023-04-03T08:55:05;2.10;;;1.05;;
64684;SDS011;51109;47.414;18.954;2023-04-03T08:57:47;1.90;;;0.95;;
64684;SDS011;51109;47.414;18.954;2023-04-03T09:00:17;1.92;;;1.45;;
64684;SDS011;51109;47.414;18.954;2023-04-03T09:02:46;1.48;;;1.17;;
64684;SDS011;51109;47.414;18.954;2023-04-03T09:05:18;1.23;;;1.00;;
64684;SDS011;51109;47.414;18.954;2023-04-03T09:07:59;6.78;;;0.93;;
64684;SDS011;51109;47.414;18.954;2023-04-03T09:10:30;2.35;;;1.75;;
64684;SDS011;51109;47.414;18.954;2023-04-03T09:13:02;1.65;;;1.35;;
64684;SDS011;51109;47.414;18.954;2023-04-03T09:15:32;1.55;;;1.05;;
64684;SDS011;51109;47.414;18.954;2023-04-03T09:18:01;2.08;;;1.50;;
64684;SDS011;51109;47.414;18.954;2023-04-03T09:20:35;1.30;;;1.00;;
64684;SDS011;51109;47.414;18.954;2023-04-03T09:23:24;5.25;;;1.38;;
64684;SDS011;51109;47.414;18.954;2023-04-03T09:26:02;1.73;;;1.48;;
64684;SDS011;51109;47.414;18.954;2023-04-03T09:28:33;0.80;;;0.80;;
64684;SDS011;51109;47.414;18.954;2023-04-03T09:31:11;1.30;;;1.20;;
64684;SDS011;51109;47.414;18.954;2023-04-03T09:34:03;2.58;;;1.70;;
64684;SDS011;51109;47.414;18.954;2023-04-03T09:39:07;1.70;;;1.10;;
64684;SDS011;51109;47.414;18.954;2023-04-03T09:41:38;1.17;;;0.90;;
64684;SDS011;51109;47.414;18.954;2023-04-03T09:44:17;1.58;;;1.48;;
64684;SDS011;51109;47.414;18.954;2023-04-03T09:46:46;1.53;;;1.43;;
64684;SDS011;51109;47.414;18.954;2023-04-03T09:49:12;0.90;;;0.90;;
64684;SDS011;51109;47.414;18.954;2023-04-03T09:51:38;1.48;;;1.38;;
64684;SDS011;51109;47.414;18.954;2023-04-03T09:57:03;1.52;;;1.42;;
64684;SDS011;51109;47.414;18.954;2023-04-03T09:59:32;1.48;;;1.20;;
64684;SDS011;51109;47.414;18.954;2023-04-03T10:04:27;4.00;;;1.80;;
64684;SDS011;51109;47.414;18.954;2023-04-03T10:07:25;1.58;;;1.33;;
64684;SDS011;51109;47.414;18.954;2023-04-03T10:09:57;0.70;;;0.70;;
64684;SDS011;51109;47.414;18.954;2023-04-03T10:12:24;1.15;;;1.00;;
64684;SDS011;51109;47.414;18.954;2023-04-03T10:20:07;0.82;;;0.82;;
64684;SDS011;51109;47.414;18.954;2023-04-03T10:43:47;1.50;;;1.40;;
64684;SDS011;51109;47.414;18.954;2023-04-03T10:46:28;1.05;;;0.80;;
64684;SDS011;51109;47.414;18.954;2023-04-03T10:54:38;0.50;;;0.50;;
64684;SDS011;51109;47.414;18.954;2023-04-03T10:57:08;1.08;;;0.98;;
64684;SDS011;51109;47.414;18.954;2023-04-03T11:03:25;1.27;;;0.88;;
64684;SDS011;51109;47.414;18.954;2023-04-03T11:05:28;0.68;;;0.63;;
64684;SDS011;51109;47.414;18.954;2023-04-03T11:07:55;1.00;;;0.90;;
64684;SDS011;51109;47.414;18.954;2023-04-03T11:13:31;0.82;;;0.80;;
64684;SDS011;51109;47.414;18.954;2023-04-03T11:16:01;2.03;;;0.75;;
64684;SDS011;51109;47.414;18.954;2023-04-03T11:18:51;1.38;;;1.10;;
64684;SDS011;51109;47.414;18.954;2023-04-03T11:23:53;1.17;;;0.85;;
64684;SDS011;51109;47.414;18.954;2023-04-03T11:26:24;1.02;;;0.82;;
64684;SDS011;51109;47.414;18.954;2023-04-03T11:29:14;0.70;;;0.70;;
64684;SDS011;51109;47.414;18.954;2023-04-03T11:32:01;0.90;;;0.90;;
64684;SDS011;51109;47.414;18.954;2023-04-03T11:34:42;2.25;;;0.85;;
64684;SDS011;51109;47.414;18.954;2023-04-03T11:42:49;3.42;;;0.80;;
64684;SDS011;51109;47.414;18.954;2023-04-03T11:45:38;1.13;;;0.70;;
64684;SDS011;51109;47.414;18.954;2023-04-03T11:50:46;0.80;;;0.80;;
64684;SDS011;51109;47.414;18.954;2023-04-03T11:55:52;1.88;;;1.02;;
64684;SDS011;51109;47.414;18.954;2023-04-03T11:58:21;2.00;;;0.80;;
64684;SDS011;51109;47.414;18.954;2023-04-03T12:01:08;0.85;;;0.65;;
64684;SDS011;51109;47.414;18.954;2023-04-03T12:29:47;1.75;;;1.25;;
64684;SDS011;51109;47.414;18.954;2023-04-03T12:38:24;1.75;;;1.00;;
64684;SDS011;51109;47.414;18.954;2023-04-03T12:46:19;0.70;;;0.70;;
64684;SDS011;51109;47.414;18.954;2023-04-03T12:51:22;1.15;;;0.95;;
64684;SDS011;51109;47.414;18.954;2023-04-03T12:54:03;1.52;;;1.15;;
64684;SDS011;51109;47.414;18.954;2023-04-03T12:56:38;0.98;;;0.80;;
64684;SDS011;51109;47.414;18.954;2023-04-03T13:01:43;1.10;;;1.00;;
64684;SDS011;51109;47.414;18.954;2023-04-03T13:04:10;0.55;;;0.55;;
64684;SDS011;51109;47.414;18.954;2023-04-03T13:06:39;6.40;;;1.40;;
64684;SDS011;51109;47.414;18.954;2023-04-03T13:09:42;1.50;;;0.60;;
64684;SDS011;51109;47.414;18.954;2023-04-03T13:12:02;0.68;;;0.68;;
64684;SDS011;51109;47.414;18.954;2023-04-03T13:14:34;0.93;;;0.93;;
64684;SDS011;51109;47.414;18.954;2023-04-03T13:19:29;0.82;;;0.70;;
64684;SDS011;51109;47.414;18.954;2023-04-03T13:21:59;0.63;;;0.63;;
64684;SDS011;51109;47.414;18.954;2023-04-03T13:24:30;0.82;;;0.60;;
64684;SDS011;51109;47.414;18.954;2023-04-03T13:27:00;1.05;;;0.95;;
64684;SDS011;51109;47.414;18.954;2023-04-03T13:29:30;0.60;;;0.60;;
64684;SDS011;51109;47.414;18.954;2023-04-03T13:31:58;1.33;;;0.57;;
64684;SDS011;51109;47.414;18.954;2023-04-03T13:34:27;0.68;;;0.60;;
64684;SDS011;51109;47.414;18.954;2023-04-03T13:37:00;0.85;;;0.65;;
64684;SDS011;51109;47.414;18.954;2023-04-03T13:39:30;4.72;;;1.15;;
64684;SDS011;51109;47.414;18.954;2023-04-03T13:41:59;0.82;;;0.82;;
64684;SDS011;51109;47.414;18.954;2023-04-03T13:44:39;0.60;;;0.60;;
64684;SDS011;51109;47.414;18.954;2023-04-03T13:49:42;1.48;;;1.00;;
64684;SDS011;51109;47.414;18.954;2023-04-03T14:05:44;0.73;;;0.73;;
64684;SDS011;51109;47.414;18.954;2023-04-03T14:08:10;1.58;;;0.98;;
64684;SDS011;51109;47.414;18.954;2023-04-03T14:10:36;0.77;;;0.77;;
64684;SDS011;51109;47.414;18.954;2023-04-03T14:13:03;0.70;;;0.70;;
64684;SDS011;51109;47.414;18.954;2023-04-03T14:15:30;0.88;;;0.70;;
64684;SDS011;51109;47.414;18.954;2023-04-03T14:17:57;1.08;;;0.80;;
64684;SDS011;51109;47.414;18.954;2023-04-03T14:20:24;0.75;;;0.75;;
64684;SDS011;51109;47.414;18.954;2023-04-03T14:22:51;0.68;;;0.60;;
64684;SDS011;51109;47.414;18.954;2023-04-03T14:25:19;0.90;;;0.65;;
64684;SDS011;51109;47.414;18.954;2023-04-03T14:27:49;1.25;;;1.15;;
64684;SDS011;51109;47.414;18.954;2023-04-03T14:30:18;1.45;;;1.20;;
64684;SDS011;51109;47.414;18.954;2023-04-03T14:32:55;2.08;;;1.52;;
64684;SDS011;51109;47.414;18.954;2023-04-03T14:35:21;1.35;;;1.15;;
64684;SDS011;51109;47.414;18.954;2023-04-03T14:37:48;1.50;;;1.40;;
64684;SDS011;51109;47.414;18.954;2023-04-03T14:40:19;2.75;;;1.50;;
64684;SDS011;51109;47.414;18.954;2023-04-03T14:42:48;3.00;;;1.10;;
64684;SDS011;51109;47.414;18.954;2023-04-03T14:45:15;1.27;;;0.95;;
64684;SDS011;51109;47.414;18.954;2023-04-03T14:47:50;2.10;;;1.38;;
64684;SDS011;51109;47.414;18.954;2023-04-03T14:50:19;2.88;;;1.52;;
64684;SDS011;51109;47.414;18.954;2023-04-03T14:52:48;2.03;;;1.13;;
64684;SDS011;51109;47.414;18.954;2023-04-03T14:55:17;1.55;;;1.40;;
64684;SDS011;51109;47.414;18.954;2023-04-03T14:57:44;1.30;;;1.20;;
64684;SDS011;51109;47.414;18.954;2023-04-03T15:00:15;4.53;;;1.40;;
64684;SDS011;51109;47.414;18.954;2023-04-03T15:02:43;1.85;;;1.45;;
64684;SDS011;51109;47.414;18.954;2023-04-03T15:05:10;4.10;;;1.95;;
64684;SDS011;51109;47.414;18.954;2023-04-03T15:07:37;2.28;;;1.10;;
64684;SDS011;51109;47.414;18.954;2023-04-03T15:10:18;1.00;;;0.90;;
64684;SDS011;51109;47.414;18.954;2023-04-03T15:12:47;2.13;;;1.33;;
64684;SDS011;51109;47.414;18.954;2023-04-03T15:15:14;1.52;;;1.25;;
64684;SDS011;51109;47.414;18.954;2023-04-03T15:17:40;2.05;;;1.30;;
64684;SDS011;51109;47.414;18.954;2023-04-03T15:20:15;1.63;;;1.30;;
64684;SDS011;51109;47.414;18.954;2023-04-03T15:22:42;1.45;;;1.20;;
64684;SDS011;51109;47.414;18.954;2023-04-03T15:25:09;1.45;;;1.30;;
64684;SDS011;51109;47.414;18.954;2023-04-03T15:27:35;2.28;;;1.40;;
64684;SDS011;51109;47.414;18.954;2023-04-03T15:30:03;1.42;;;1.30;;
64684;SDS011;51109;47.414;18.954;2023-04-03T15:32:31;1.75;;;1.05;;
64684;SDS011;51109;47.414;18.954;2023-04-03T15:34:58;1.73;;;1.00;;
64684;SDS011;51109;47.414;18.954;2023-04-03T15:37:24;1.95;;;1.15;;
64684;SDS011;51109;47.414;18.954;2023-04-03T15:39:51;1.95;;;1.27;;
64684;SDS011;51109;47.414;18.954;2023-04-03T15:42:16;1.30;;;1.20;;
64684;SDS011;51109;47.414;18.954;2023-04-03T15:44:42;1.90;;;1.13;;
64684;SDS011;51109;47.414;18.954;2023-04-03T15:47:08;2.00;;;1.08;;
64684;SDS011;51109;47.414;18.954;2023-04-03T15:49:35;2.33;;;1.10;;
64684;SDS011;51109;47.414;18.954;2023-04-03T15:52:01;2.88;;;1.10;;
64684;SDS011;51109;47.414;18.954;2023-04-03T15:54:27;3.45;;;0.90;;
64684;SDS011;51109;47.414;18.954;2023-04-03T15:56:54;1.55;;;1.20;;
64684;SDS011;51109;47.414;18.954;2023-04-03T15:59:21;1.95;;;1.10;;
64684;SDS011;51109;47.414;18.954;2023-04-03T16:01:47;1.45;;;1.35;;
64684;SDS011;51109;47.414;18.954;2023-04-03T16:04:15;5.90;;;1.10;;
64684;SDS011;51109;47.414;18.954;2023-04-03T16:06:42;1.10;;;1.00;;
64684;SDS011;51109;47.414;18.954;2023-04-03T16:09:08;2.33;;;1.83;;
64684;SDS011;51109;47.414;18.954;2023-04-03T16:11:35;3.88;;;2.05;;
64684;SDS011;51109;47.414;18.954;2023-04-03T16:14:04;3.22;;;2.38;;
64684;SDS011;51109;47.414;18.954;2023-04-03T16:16:33;4.60;;;1.20;;
64684;SDS011;51109;47.414;18.954;2023-04-03T16:19:01;2.17;;;1.30;;
64684;SDS011;51109;47.414;18.954;2023-04-03T16:21:27;2.42;;;1.30;;
64684;SDS011;51109;47.414;18.954;2023-04-03T16:23:54;1.13;;;1.00;;
64684;SDS011;51109;47.414;18.954;2023-04-03T16:26:22;2.30;;;1.08;;
64684;SDS011;51109;47.414;18.954;2023-04-03T16:28:48;2.53;;;1.10;;
64684;SDS011;51109;47.414;18.954;2023-04-03T16:31:14;1.23;;;0.88;;
64684;SDS011;51109;47.414;18.954;2023-04-03T16:33:41;1.23;;;1.23;;
64684;SDS011;51109;47.414;18.954;2023-04-03T16:36:07;3.15;;;1.30;;
64684;SDS011;51109;47.414;18.954;2023-04-03T16:38:33;3.63;;;1.30;;
64684;SDS011;51109;47.414;18.954;2023-04-03T16:40:59;2.05;;;1.15;;
64684;SDS011;51109;47.414;18.954;2023-04-03T16:43:29;1.35;;;1.25;;
64684;SDS011;51109;47.414;18.954;2023-04-03T16:45:56;1.67;;;1.58;;
64684;SDS011;51109;47.414;18.954;2023-04-03T16:48:23;1.75;;;1.30;;
64684;SDS011;51109;47.414;18.954;2023-04-03T16:50:49;1.27;;;1.17;;
64684;SDS011;51109;47.414;18.954;2023-04-03T16:53:22;3.88;;;1.48;;
64684;SDS011;51109;47.414;18.954;2023-04-03T16:55:48;3.03;;;1.83;;
64684;SDS011;51109;47.414;18.954;2023-04-03T16:58:15;5.15;;;1.50;;
64684;SDS011;51109;47.414;18.954;2023-04-03T17:00:41;1.30;;;1.20;;